地図

経路データ

SID SEASON NUMBER BASIN SUBBASIN NAME ISO_TIME NATURE LAT LON WMO_WIND WMO_PRES WMO_AGENCY TRACK_TYPE DIST2LAND LANDFALL IFLAG USA_AGENCY USA_ATCF_ID USA_LAT USA_LON USA_RECORD USA_STATUS USA_WIND USA_PRES USA_SSHS USA_R34_NE USA_R34_SE USA_R34_SW USA_R34_NW USA_R50_NE USA_R50_SE USA_R50_SW USA_R50_NW USA_R64_NE USA_R64_SE USA_R64_SW USA_R64_NW USA_POCI USA_ROCI USA_RMW USA_EYE TOKYO_LAT TOKYO_LON TOKYO_GRADE TOKYO_WIND TOKYO_PRES TOKYO_R50_DIR TOKYO_R50_LONG TOKYO_R50_SHORT TOKYO_R30_DIR TOKYO_R30_LONG TOKYO_R30_SHORT TOKYO_LAND CMA_LAT CMA_LON CMA_CAT CMA_WIND CMA_PRES HKO_LAT HKO_LON HKO_CAT HKO_WIND HKO_PRES NEWDELHI_LAT NEWDELHI_LON NEWDELHI_GRADE NEWDELHI_WIND NEWDELHI_PRES NEWDELHI_CI NEWDELHI_DP NEWDELHI_POCI REUNION_LAT REUNION_LON REUNION_TYPE REUNION_WIND REUNION_PRES REUNION_TNUM REUNION_CI REUNION_RMW REUNION_R34_NE REUNION_R34_SE REUNION_R34_SW REUNION_R34_NW REUNION_R50_NE REUNION_R50_SE REUNION_R50_SW REUNION_R50_NW REUNION_R64_NE REUNION_R64_SE REUNION_R64_SW REUNION_R64_NW BOM_LAT BOM_LON BOM_TYPE BOM_WIND BOM_PRES BOM_TNUM BOM_CI BOM_RMW BOM_R34_NE BOM_R34_SE BOM_R34_SW BOM_R34_NW BOM_R50_NE BOM_R50_SE BOM_R50_SW BOM_R50_NW BOM_R64_NE BOM_R64_SE BOM_R64_SW BOM_R64_NW BOM_ROCI BOM_POCI BOM_EYE BOM_POS_METHOD BOM_PRES_METHOD NADI_LAT NADI_LON NADI_CAT NADI_WIND NADI_PRES WELLINGTON_LAT WELLINGTON_LON WELLINGTON_WIND WELLINGTON_PRES DS824_LAT DS824_LON DS824_STAGE DS824_WIND DS824_PRES TD9636_LAT TD9636_LON TD9636_STAGE TD9636_WIND TD9636_PRES TD9635_LAT TD9635_LON TD9635_WIND TD9635_PRES TD9635_ROCI NEUMANN_LAT NEUMANN_LON NEUMANN_CLASS NEUMANN_WIND NEUMANN_PRES MLC_LAT MLC_LON MLC_CLASS MLC_WIND MLC_PRES USA_GUST BOM_GUST BOM_GUST_PER REUNION_GUST REUNION_GUST_PER USA_SEAHGT USA_SEARAD_NE USA_SEARAD_SE USA_SEARAD_SW USA_SEARAD_NW STORM_SPEED STORM_DIR
1920158N14069 1920 18 NI AS NOT_NAMED 1920-06-06 00:00:00 TS 14.3000 69.4000 main 484 484 _________O____ -1 14.3000 69.4000 TC 64 3 311
1920158N14069 1920 18 NI AS NOT_NAMED 1920-06-06 03:00:00 TS 14.3934 69.2917 main 489 489 _________PO___ -1 14.4400 69.2375 TC 64 14.3000 69.4000 4 3 318
1920158N14069 1920 18 NI AS NOT_NAMED 1920-06-06 06:00:00 TS 14.5469 69.1719 main 493 488 _________OP___ -1 14.6000 69.1000 TC 64 14.4672 69.2798 4 4 327
1920158N14069 1920 18 NI AS NOT_NAMED 1920-06-06 09:00:00 TS 14.7261 69.0675 main 493 488 _________PP___ -1 14.7925 69.0000 TC 64 14.6375 69.1575 4 4 331
1920158N14069 1920 18 NI AS NOT_NAMED 1920-06-06 12:00:00 TS 14.9070 68.9658 main 494 494 _________OP___ -1 15.0000 68.9000 TC 64 14.8141 69.0316 4 4 328
1920158N14069 1920 18 NI AS NOT_NAMED 1920-06-06 15:00:00 TS 15.1000 68.8250 main 506 503 _________PO___ -1 15.2000 68.7500 TC 64 15.0000 68.9000 4 5 325
1920158N14069 1920 18 NI AS NOT_NAMED 1920-06-06 18:00:00 TS 15.2984 68.6814 main 510 510 _________OP___ -1 15.4000 68.6000 TC 64 15.1969 68.7629 4 5 327
1920158N14069 1920 18 NI AS NOT_NAMED 1920-06-06 21:00:00 TS 15.5038 68.5563 main 514 514 _________PP___ -1 15.6075 68.4850 TC 64 15.4000 68.6276 4 5 331
1920158N14069 1920 18 NI AS NOT_NAMED 1920-06-07 00:00:00 TS 15.7016 68.4518 main 520 520 _________OP___ -1 15.8000 68.4000 TC 64 15.6032 68.5035 4 4 335
1920158N14069 1920 18 NI AS NOT_NAMED 1920-06-07 03:00:00 TS 15.8750 68.3712 main 527 527 _________PO___ -1 15.9500 68.3425 TC 64 15.8000 68.4000 4 4 338
1920158N14069 1920 18 NI AS NOT_NAMED 1920-06-07 06:00:00 TS 16.0411 68.3121 main 536 534 _________OP___ -1 16.1000 68.3000 TC 64 15.9821 68.3243 4 4 343
1920158N14069 1920 18 NI AS NOT_NAMED 1920-06-07 09:00:00 TS 16.2287 68.2599 main 534 530 _________PP___ -1 16.3000 68.2500 TC 64 16.1575 68.2699 4 4 346
1920158N14069 1920 18 NI AS NOT_NAMED 1920-06-07 12:00:00 TS 16.4145 68.2153 main 538 529 _________OP___ -1 16.5000 68.2000 TC 64 16.3290 68.2305 4 4 345
1920158N14069 1920 18 NI AS NOT_NAMED 1920-06-07 15:00:00 TS 16.5750 68.1712 main 529 529 _________PO___ -1 16.6500 68.1425 TC 64 16.5000 68.2000 4 3 346
1920158N14069 1920 18 NI AS NOT_NAMED 1920-06-07 18:00:00 TS 16.7375 68.1319 main 530 511 _________OP___ -1 16.8000 68.1000 TC 64 16.6750 68.1637 4 4 352
1920158N14069 1920 18 NI AS NOT_NAMED 1920-06-07 21:00:00 TS 16.9250 68.1137 main 511 492 _________PP___ -1 17.0000 68.0925 TC 64 16.8500 68.1350 4 4 358
1920158N14069 1920 18 NI AS NOT_NAMED 1920-06-08 00:00:00 TS 17.1125 68.1069 main 492 474 _________OP___ -1 17.2000 68.1000 TC 64 17.0250 68.1137 4 4 0
1920158N14069 1920 18 NI AS NOT_NAMED 1920-06-08 03:00:00 TS 17.2750 68.1000 main 474 465 _________PO___ -1 17.3500 68.1000 TC 64 17.2000 68.1000 4 3 357
1920158N14069 1920 18 NI AS NOT_NAMED 1920-06-08 06:00:00 TS 17.4334 68.0944 main 465 446 _________OP___ -1 17.5000 68.1000 TC 64 17.3669 68.0888 4 3 356
1920158N14069 1920 18 NI AS NOT_NAMED 1920-06-08 09:00:00 TS 17.6100 68.0925 main 446 428 _________PP___ -1 17.6850 68.1000 TC 64 17.5350 68.0850 4 4 0
1920158N14069 1920 18 NI AS NOT_NAMED 1920-06-08 12:00:00 TS 17.8053 68.0944 main 428 410 _________OP___ -1 17.9000 68.1000 TC 64 17.7106 68.0888 4 4 0
1920158N14069 1920 18 NI AS NOT_NAMED 1920-06-08 15:00:00 TS 18.0250 68.0963 main 410 382 _________PO___ -1 18.1500 68.0925 TC 64 17.9000 68.1000 4 5 0
1920158N14069 1920 18 NI AS NOT_NAMED 1920-06-08 18:00:00 TS 18.2634 68.1048 main 382 364 _________OP___ -1 18.4000 68.1000 TC 64 18.1269 68.1097 4 5 5
1920158N14069 1920 18 NI AS NOT_NAMED 1920-06-08 21:00:00 TS 18.4900 68.1350 main 364 340 _________PP___ -1 18.6150 68.1425 TC 64 18.3650 68.1275 4 4 10
1920158N14069 1920 18 NI AS NOT_NAMED 1920-06-09 00:00:00 TS 18.6978 68.1783 main 340 322 _________OP___ -1 18.8000 68.2000 TC 64 18.5956 68.1566 4 4 11
1920158N14069 1920 18 NI AS NOT_NAMED 1920-06-09 03:00:00 TS 18.8825 68.2213 main 322 307 _________PO___ -1 18.9650 68.2425 TC 64 18.8000 68.2000 4 3 16
1920158N14069 1920 18 NI AS NOT_NAMED 1920-06-09 06:00:00 TS 19.0228 68.2803 main 307 292 _________OP___ -1 19.1000 68.3000 TC 64 18.9456 68.2607 4 3 29
1920158N14069 1920 18 NI AS NOT_NAMED 1920-06-09 09:00:00 TS 19.1288 68.3675 main 292 276 _________PP___ -1 19.1925 68.4000 TC 64 19.0650 68.3351 4 3 38
1920158N14069 1920 18 NI AS NOT_NAMED 1920-06-09 12:00:00 TS 19.2384 68.4585 main 276 259 _________OP___ -1 19.3000 68.5000 TC 64 19.1769 68.4169 4 3 29
1920158N14069 1920 18 NI AS NOT_NAMED 1920-06-09 15:00:00 TS 19.3962 68.5250 main 259 236 _________PO___ -1 19.4925 68.5500 TC 64 19.3000 68.5000 4 4 18
1920158N14069 1920 18 NI AS NOT_NAMED 1920-06-09 18:00:00 TS 19.5884 68.5855 main 236 213 _________OP___ -1 19.7000 68.6000 TC 64 19.4769 68.5709 4 4 20
1920158N14069 1920 18 NI AS NOT_NAMED 1920-06-09 21:00:00 TS 19.7650 68.6675 main 213 198 _________PP___ -1 19.8650 68.6925 TC 64 19.6650 68.6425 4 4 26
1920158N14069 1920 18 NI AS NOT_NAMED 1920-06-10 00:00:00 TS 19.9228 68.7589 main 198 182 _________OP___ -1 20.0000 68.8000 TC 64 19.8456 68.7178 4 3 31
1920158N14069 1920 18 NI AS NOT_NAMED 1920-06-10 03:00:00 TS 20.0575 68.8500 main 175 175 _________PO___ -1 20.1150 68.9000 TC 64 20.0000 68.8000 4 3 38
1920158N14069 1920 18 NI AS NOT_NAMED 1920-06-10 06:00:00 TS 20.1498 68.9465 main 175 159 _________OP___ -1 20.2000 69.0000 TC 64 20.0997 68.8929 4 2 50
1920158N14069 1920 18 NI AS NOT_NAMED 1920-06-10 09:00:00 TS 20.2112 69.0463 main 159 144 _________PP___ -1 20.2500 69.1000 TC 64 20.1725 68.9926 4 2 58
1920158N14069 1920 18 NI AS NOT_NAMED 1920-06-10 12:00:00 TS 20.2670 69.1480 main 144 137 _________OP___ -1 20.3000 69.2000 TC 64 20.2341 69.0960 4 2 55
1920158N14069 1920 18 NI AS NOT_NAMED 1920-06-10 15:00:00 TS 20.3462 69.2500 main 129 121 _________PO___ -1 20.3925 69.3000 TC 64 20.3000 69.2000 4 3 46
1920158N14069 1920 18 NI AS NOT_NAMED 1920-06-10 18:00:00 TS 20.4484 69.3520 main 114 106 _________OP___ -1 20.5000 69.4000 TC 64 20.3969 69.3040 4 3 43
1920158N14069 1920 18 NI AS NOT_NAMED 1920-06-10 21:00:00 TS 20.5537 69.4537 main 91 91 _________PP___ -1 20.6075 69.5000 TC 64 20.5000 69.4075 4 3 43
1920158N14069 1920 18 NI AS NOT_NAMED 1920-06-11 00:00:00 TS 20.6516 69.5536 main 76 76 _________OP___ -1 20.7000 69.6000 TC 64 20.6031 69.5072 4 3 47
1920158N14069 1920 18 NI AS NOT_NAMED 1920-06-11 03:00:00 TS 20.7250 69.6538 main 68 61 _________PO___ -1 20.7500 69.7075 TC 64 20.7000 69.6000 4 2 51
1920158N14069 1920 18 NI AS NOT_NAMED 1920-06-11 06:00:00 TS 20.7890 69.7391 main 61 45 _________OP___ -1 20.8000 69.8000 TC 64 20.7781 69.6782 4 2 44
1920158N14069 1920 18 NI AS NOT_NAMED 1920-06-11 09:00:00 TS 20.8712 69.8001 main 45 30 _________PP___ -1 20.8925 69.8500 TC 64 20.8499 69.7501 4 2 33
1920158N14069 1920 18 NI AS NOT_NAMED 1920-06-11 12:00:00 TS 20.9609 69.8610 main 30 30 _________OP___ -1 21.0000 69.9000 TC 64 20.9218 69.8220 4 2 37
1920158N14069 1920 18 NI AS NOT_NAMED 1920-06-11 15:00:00 TS 21.0500 69.9463 main 23 15 _________PO___ -1 21.1000 69.9925 TC 64 21.0000 69.9000 4 3 42
1920158N14069 1920 18 NI AS NOT_NAMED 1920-06-11 18:00:00 TS 21.1484 70.0464 main 15 0 _________OP___ -1 21.2000 70.1000 TC 64 21.0969 69.9928 4 3 43
1920158N14069 1920 18 NI AS NOT_NAMED 1920-06-11 21:00:00 TS 21.2500 70.1462 main 0 0 _________PP___ -1 21.3000 70.2000 TC 64 21.2000 70.0925 4 3 43
1920158N14069 1920 18 NI AS NOT_NAMED 1920-06-12 00:00:00 TS 21.3516 70.2480 main 0 0 _________OP___ -1 21.4000 70.3000 TC 64 21.3031 70.1959 4 3 43
1920158N14069 1920 18 NI AS NOT_NAMED 1920-06-12 03:00:00 TS 21.4537 70.3500 main 0 0 _________PO___ -1 21.5075 70.4000 TC 64 21.4000 70.3000 4 3 44
1920158N14069 1920 18 NI AS NOT_NAMED 1920-06-12 06:00:00 TS 21.5411 70.4480 main 0 0 _________OP___ -1 21.6000 70.5000 TC 64 21.4822 70.3960 4 2 50
1920158N14069 1920 18 NI AS NOT_NAMED 1920-06-12 09:00:00 TS 21.6037 70.5463 main 0 0 _________PP___ -1 21.6500 70.6000 TC 64 21.5574 70.4926 4 2 57
1920158N14069 1920 18 NI AS NOT_NAMED 1920-06-12 12:00:00 TS 21.6645 70.6464 main 0 0 _________OP___ -1 21.7000 70.7000 TC 64 21.6290 70.5929 4 2 52
1920158N14069 1920 18 NI AS NOT_NAMED 1920-06-12 15:00:00 TS 21.7500 70.7462 main 0 0 _________PO___ -1 21.8000 70.7925 TC 64 21.7000 70.7000 4 3 49
1920158N14069 1920 18 NI AS NOT_NAMED 1920-06-12 18:00:00 TS 21.8375 70.8609 main 0 0 _________OP___ -1 21.9000 70.9000 TC 64 21.7750 70.8219 4 3 57
1920158N14069 1920 18 NI AS NOT_NAMED 1920-06-12 21:00:00 TS 21.9038 71.0000 main 0 0 _________PP___ -1 21.9575 71.0500 TC 64 21.8500 70.9500 4 3 64
1920158N14069 1920 18 NI AS NOT_NAMED 1920-06-13 00:00:00 TS 21.9625 71.1391 main 0 0 _________OP___ -1 22.0000 71.2000 TC 64 21.9250 71.0781 4 3 63
1920158N14069 1920 18 NI AS NOT_NAMED 1920-06-13 03:00:00 TS 22.0212 71.2538 main 0 0 _________PO___ -1 22.0425 71.3075 TC 64 22.0000 71.2000 4 2 57
1920158N14069 1920 18 NI AS NOT_NAMED 1920-06-13 06:00:00 TS 22.0875 71.3496 main 0 0 _________OP___ -1 22.1000 71.4000 TC 64 22.0749 71.2991 4 2 49
1920158N14069 1920 18 NI AS NOT_NAMED 1920-06-13 09:00:00 TS 22.1712 71.4426 main 0 0 _________PP___ -1 22.1925 71.4925 TC 64 22.1499 71.3926 4 3 46
1920158N14069 1920 18 NI AS NOT_NAMED 1920-06-13 12:00:00 TS 22.2625 71.5449 main 0 0 _________OP___ -1 22.3000 71.6000 TC 64 22.2249 71.4898 4 3 49
1920158N14069 1920 18 NI AS NOT_NAMED 1920-06-13 15:00:00 TS 22.3538 71.6712 main 0 0 _________PO___ -1 22.4075 71.7425 TC 64 22.3000 71.6000 4 3 55
1920158N14069 1920 18 NI AS NOT_NAMED 1920-06-13 18:00:00 TS 22.4286 71.8030 main 0 0 _________OP___ -1 22.5000 71.9000 TC 64 22.3751 71.7302 4 3 61
1920158N14069 1920 18 NI AS NOT_NAMED 1920-06-13 21:00:00 TS 22.4941 71.9474 main 0 0 _________PP___ -1 22.5600 72.0525 TC 64 22.4502 71.8773 4 3 65
1920158N14069 1920 18 NI AS NOT_NAMED 1920-06-14 00:00:00 TS 22.5501 72.0905 main 0 0 _________OP___ -1 22.6000 72.2000 TC 64 22.5252 72.0358 4 3 66
1920158N14069 1920 18 NI AS NOT_NAMED 1920-06-14 03:00:00 NR 22.6000 72.2000 main 0 __________O___ -1 TC 22.6000 72.2000 4 2 65

IBTrACS Databaseについて

本データベースは、米国NOAAが公開する1842年以降の世界の熱帯低気圧のベストトラックデータアーカイブInternational Best Track Archive for Climate Stewardship (IBTrACS)を、ウェブで閲覧しやすい形式に変換したものです。

最終更新日:2021-11-26